Time;durP1;ratioP1;P1;durP2;ratioP2;P2;SDS_P1;SDS_P2;PMS_P1;PMS_P2;Temp;Humidity;BMP_temperature;BMP_pressure;BME280_temperature;BME280_humidity;BME280_pressure;Samples;Min_cycle;Max_cycle;Signal;HPM_P1;HPM_P2
2023/08/27 00:01:13;;;;;;;;;;;;;;;;;;2213802;59;2230;-20
2023/08/27 00:03:44;;;;;;;;;;;;;;;;;;2214442;66;1968;-20
2023/08/27 00:06:14;;;;;;;;;;;;;;;;;;2208737;67;2045;-20
2023/08/27 00:08:44;;;;;;;;;;;;;;;;;;2215074;66;2002;-20
2023/08/27 00:11:14;;;;;;;;;;;;;;;;;;2214652;66;2384;-20
2023/08/27 00:13:45;;;;;;;;;;;;;;;;;;2215016;59;1916;-20
2023/08/27 00:16:15;;;;;;;;;;;;;;;;;;2211275;67;1956;-20
2023/08/27 00:18:45;;;;;;;;;;;;;;;;;;2214423;66;1872;-20
2023/08/27 00:21:18;;;;;;;;;;;;;;;;;;2211126;67;1996;-20
2023/08/27 00:23:49;;;;;;;;;;;;;;;;;;2214783;66;2377;-20
2023/08/27 00:26:19;;;;;;;;;;;;;;;;;;2214856;66;1824;-20
2023/08/27 00:28:49;;;;;;;;;;;;;;;;;;2215010;59;1979;-20
2023/08/27 00:31:19;;;;;;;;;;;;;;;;;;2215380;66;1773;-20
2023/08/27 00:33:50;;;;;;;;;;;;;;;;;;2211776;59;2136;-20
2023/08/27 00:36:20;;;;;;;;;;;;;;;;;;2214786;66;1736;-20
2023/08/27 00:38:50;;;;;;;;;;;;;;;;;;2214136;59;1713;-20
2023/08/27 00:41:21;;;;;;;;;;;;;;;;;;2214593;66;1753;-20
2023/08/27 00:43:51;;;;;;;;;;;;;;;;;;2214693;59;1712;-20
2023/08/27 00:46:22;;;;;;;;;;;;;;;;;;2213854;59;1526;-20
2023/08/27 00:48:52;;;;;;;;;;;;;;;;;;2214111;66;2096;-20
2023/08/27 00:51:23;;;;;;;;;;;;;;;;;;2214042;59;2187;-20
2023/08/27 00:53:53;;;;;;;;;;;;;;;;;;2214701;59;1827;-20
2023/08/27 00:56:24;;;;;;;;;;;;;;;;;;2214318;59;2030;-20
2023/08/27 00:58:54;;;;;;;;;;;;;;;;;;2214305;66;1586;-20
2023/08/27 01:01:27;;;;;;;;;;;;;;;;;;2213803;59;3579;-20
2023/08/27 01:03:57;;;;;;;;;;;;;;;;;;2211656;67;2523;-20
2023/08/27 01:06:27;;;;;;;;;;;;;;;;;;2214363;66;2577;-20
2023/08/27 01:09:10;;;;;;;;;;;;;;;;;;2213738;66;1936;-20
2023/08/27 01:11:40;;;;;;;;;;;;;;;;;;2214487;59;2032;-20
2023/08/27 01:14:11;;;;;;;;;;;;;;;;;;2211078;67;2214;-20
2023/08/27 01:16:44;;;;;;;;;;;;;;;;;;2211661;66;2387;-20
2023/08/27 01:19:15;;;;;;;;;;;;;;;;;;2214508;66;1914;-21
2023/08/27 01:21:47;;;;;;;;;;;;;;;;;;2214768;59;1719;-21
2023/08/27 01:24:17;;;;;;;;;;;;;;;;;;2211520;59;3041;-22
2023/08/27 01:26:53;;;;;;;;;;;;;;;;;;2214655;66;2086;-22
2023/08/27 01:29:36;;;;;;;;;;;;;;;;;;2214841;59;1915;-22
2023/08/27 01:32:26;;;;;;;;;;;;;;;;;;2215501;59;1983;-22
2023/08/27 01:34:56;;;;;;;;;;;;;;;;;;2214814;66;2128;-22
2023/08/27 01:37:28;;;;;;;;;;;;;;;;;;2214816;59;2432;-22
2023/08/27 01:40:05;;;;;;;;;;;;;;;;;;2212129;66;2088;-22
2023/08/27 01:42:36;;;;;;;;;;;;;;;;;;2214690;66;2986;-22
2023/08/27 01:45:09;;;;;;;;;;;;;;;;;;2214661;59;2143;-22
2023/08/27 01:47:39;;;;;;;;;;;;;;;;;;2215280;58;1852;-22
2023/08/27 01:50:09;;;;;;;;;;;;;;;;;;2210966;59;2129;-22
2023/08/27 01:52:40;;;;;;;;;;;;;;;;;;2215466;59;1972;-22
2023/08/27 01:55:10;;;;;;;;;;;;;;;;;;2214855;59;2492;-22
2023/08/27 01:57:41;;;;;;;;;;;;;;;;;;2214520;59;1784;-22
2023/08/27 02:00:11;;;;;;;;;;;;;;;;;;2215410;59;1745;-22
2023/08/27 02:02:42;;;;;;;;;;;;;;;;;;2210018;59;2474;-22
2023/08/27 02:05:12;;;;;;;;;;;;;;;;;;2215081;59;3423;-22
2023/08/27 02:07:43;;;;;;;;;;;;;;;;;;2212142;66;2963;-22
2023/08/27 02:10:13;;;;;;;;;;;;;;;;;;2214396;59;2620;-22
2023/08/27 02:12:43;;;;;;;;;;;;;;;;;;2212163;59;1515;-22
2023/08/27 02:15:14;;;;;;;;;;;;;;;;;;2214917;66;1789;-22
2023/08/27 02:17:44;;;;;;;;;;;;;;;;;;2215318;66;2068;-23
2023/08/27 02:20:14;;;;;;;;;;;;;;;;;;2214655;66;2576;-22
2023/08/27 02:22:45;;;;;;;;;;;;;;;;;;2214777;66;1146;-22
2023/08/27 02:25:15;;;;;;;;;;;;;;;;;;2214642;66;1266;-22
2023/08/27 02:27:45;;;;;;;;;;;;;;;;;;2214432;59;1299;-22
2023/08/27 02:30:15;;;;;;;;;;;;;;;;;;2215057;66;1964;-22
2023/08/27 02:32:46;;;;;;;;;;;;;;;;;;2215591;59;1612;-22
2023/08/27 02:35:16;;;;;;;;;;;;;;;;;;2214973;66;1374;-22
2023/08/27 02:37:46;;;;;;;;;;;;;;;;;;2213848;59;2224;-22
2023/08/27 02:40:17;;;;;;;;;;;;;;;;;;2214219;66;1787;-23
2023/08/27 02:42:48;;;;;;;;;;;;;;;;;;2214920;66;1647;-23
2023/08/27 02:45:19;;;;;;;;;;;;;;;;;;2211227;59;1418;-22
2023/08/27 02:47:55;;;;;;;;;;;;;;;;;;2215005;66;1637;-22
2023/08/27 02:50:25;;;;;;;;;;;;;;;;;;2215699;59;2185;-23
2023/08/27 02:52:56;;;;;;;;;;;;;;;;;;2212395;59;1734;-22
2023/08/27 02:55:28;;;;;;;;;;;;;;;;;;2216005;59;1398;-22
2023/08/27 02:57:58;;;;;;;;;;;;;;;;;;2215248;66;1277;-22
2023/08/27 03:00:29;;;;;;;;;;;;;;;;;;2215627;59;1672;-22
2023/08/27 03:02:59;;;;;;;;;;;;;;;;;;2211204;66;2591;-22
2023/08/27 03:05:29;;;;;;;;;;;;;;;;;;2214208;59;2548;-22
2023/08/27 03:07:59;;;;;;;;;;;;;;;;;;2214314;66;1865;-22
2023/08/27 03:10:30;;;;;;;;;;;;;;;;;;2214590;66;2236;-22
2023/08/27 03:13:00;;;;;;;;;;;;;;;;;;2215107;59;2383;-22
2023/08/27 03:15:30;;;;;;;;;;;;;;;;;;2214295;59;2700;-22
2023/08/27 03:18:00;;;;;;;;;;;;;;;;;;2215413;66;1895;-22
2023/08/27 03:20:31;;;;;;;;;;;;;;;;;;2211619;67;1705;-22
2023/08/27 03:23:01;;;;;;;;;;;;;;;;;;2214705;66;2621;-22
2023/08/27 03:25:31;;;;;;;;;;;;;;;;;;2214112;59;1516;-22
2023/08/27 03:28:02;;;;;;;;;;;;;;;;;;2214378;59;1991;-22
2023/08/27 03:30:32;;;;;;;;;;;;;;;;;;2215119;66;1951;-22
2023/08/27 03:33:05;;;;;;;;;;;;;;;;;;2210008;59;2206;-22
2023/08/27 03:35:36;;;;;;;;;;;;;;;;;;2215260;59;1816;-22
2023/08/27 03:38:06;;;;;;;;;;;;;;;;;;2215028;59;1868;-22
2023/08/27 03:40:36;;;;;;;;;;;;;;;;;;2215471;63;1872;-22
2023/08/27 03:43:06;;;;;;;;;;;;;;;;;;2214845;66;1681;-22
2023/08/27 03:45:38;;;;;;;;;;;;;;;;;;2215359;59;1507;-22
2023/08/27 03:48:08;;;;;;;;;;;;;;;;;;2214419;66;1996;-22
2023/08/27 03:50:38;;;;;;;;;;;;;;;;;;2215140;66;2180;-22
2023/08/27 03:53:10;;;;;;;;;;;;;;;;;;2215215;59;1508;-22
2023/08/27 03:55:41;;;;;;;;;;;;;;;;;;2215744;59;2194;-22
2023/08/27 03:58:11;;;;;;;;;;;;;;;;;;2214730;66;1628;-22
2023/08/27 04:00:41;;;;;;;;;;;;;;;;;;2211671;59;1933;-22
2023/08/27 04:03:12;;;;;;;;;;;;;;;;;;2214660;59;2904;-22
2023/08/27 04:05:42;;;;;;;;;;;;;;;;;;2213639;66;2474;-22
2023/08/27 04:08:12;;;;;;;;;;;;;;;;;;2215257;66;2223;-22
2023/08/27 04:10:52;;;;;;;;;;;;;;;;;;2215070;66;2571;-22
2023/08/27 04:13:24;;;;;;;;;;;;;;;;;;2214836;59;1761;-22
2023/08/27 04:16:12;;;;;;;;;;;;;;;;;;2215232;66;1815;-22
2023/08/27 04:18:42;;;;;;;;;;;;;;;;;;2215227;59;1677;-22
2023/08/27 04:21:12;;;;;;;;;;;;;;;;;;2214377;59;1750;-22
2023/08/27 04:23:43;;;;;;;;;;;;;;;;;;2214504;66;1982;-22
2023/08/27 04:26:13;;;;;;;;;;;;;;;;;;2212393;67;1774;-22
2023/08/27 04:28:43;;;;;;;;;;;;;;;;;;2214975;59;2576;-22
2023/08/27 04:31:16;;;;;;;;;;;;;;;;;;2214686;59;2002;-22
2023/08/27 04:33:46;;;;;;;;;;;;;;;;;;2215253;59;1982;-22
2023/08/27 04:36:16;;;;;;;;;;;;;;;;;;2215400;66;1765;-22
2023/08/27 04:38:47;;;;;;;;;;;;;;;;;;2213418;59;2918;-22
2023/08/27 04:41:17;;;;;;;;;;;;;;;;;;2214833;66;2000;-22
2023/08/27 04:43:47;;;;;;;;;;;;;;;;;;2214980;59;2492;-23
2023/08/27 04:46:17;;;;;;;;;;;;;;;;;;2215572;59;1739;-23
2023/08/27 04:48:47;;;;;;;;;;;;;;;;;;2214889;66;1999;-22
2023/08/27 04:51:18;;;;;;;;;;;;;;;;;;2214189;59;2332;-22
2023/08/27 04:53:48;;;;;;;;;;;;;;;;;;2214543;59;2549;-25
2023/08/27 04:56:18;;;;;;;;;;;;;;;;;;2211090;59;1904;-25
2023/08/27 04:58:48;;;;;;;;;;;;;;;;;;2215104;66;2585;-25
2023/08/27 05:01:19;;;;;;;;;;;;;;;;;;2214267;59;2075;-25
2023/08/27 05:03:49;;;;;;;;;;;;;;;;;;2213855;66;2023;-26
2023/08/27 05:06:19;;;;;;;;;;;;;;;;;;2212520;66;2402;-23
2023/08/27 05:08:49;;;;;;;;;;;;;;;;;;2211227;66;1971;-22
2023/08/27 05:11:20;;;;;;;;;;;;;;;;;;2210943;59;1640;-22
2023/08/27 05:13:50;;;;;;;;;;;;;;;;;;2214401;66;2609;-22
2023/08/27 05:16:20;;;;;;;;;;;;;;;;;;2214804;59;2018;-22
2023/08/27 05:18:50;;;;;;;;;;;;;;;;;;2214327;66;1818;-22
2023/08/27 05:21:21;;;;;;;;;;;;;;;;;;2214842;66;1633;-22
2023/08/27 05:23:52;;;;;;;;;;;;;;;;;;2214045;66;2135;-22
2023/08/27 05:26:23;;;;;;;;;;;;;;;;;;2212740;67;1946;-22
2023/08/27 05:28:53;;;;;;;;;;;;;;;;;;2211616;59;1964;-22
2023/08/27 05:31:24;;;;;;;;;;;;;;;;;;2214038;59;1847;-22
2023/08/27 05:33:54;;;;;;;;;;;;;;;;;;2214127;59;1798;-22
2023/08/27 05:36:24;;;;;;;;;;;;;;;;;;2215005;66;1876;-22
2023/08/27 05:38:54;;;;;;;;;;;;;;;;;;2214276;59;1982;-22
2023/08/27 05:41:25;;;;;;;;;;;;;;;;;;2215396;66;1342;-22
2023/08/27 05:43:55;;;;;;;;;;;;;;;;;;2215233;66;1423;-22
2023/08/27 05:46:25;;;;;;;;;;;;;;;;;;2216634;53;2052;-27
2023/08/27 05:48:55;;;;;;;;;;;;;;;;;;2214248;59;2523;-27
2023/08/27 05:51:26;;;;;;;;;;;;;;;;;;2215023;58;1677;-27
2023/08/27 05:53:56;;;;;;;;;;;;;;;;;;2215385;59;2267;-27
2023/08/27 05:56:27;;;;;;;;;;;;;;;;;;2215844;58;2053;-27
2023/08/27 05:58:57;;;;;;;;;;;;;;;;;;2219265;66;1774;-27
2023/08/27 06:01:28;;;;;;;;;;;;;;;;;;2216180;59;1702;-27
2023/08/27 06:03:58;;;;;;;;;;;;;;;;;;2218595;66;3097;-27
2023/08/27 06:06:28;;;;;;;;;;;;;;;;;;2218092;59;2164;-27
2023/08/27 06:08:58;;;;;;;;;;;;;;;;;;2218390;66;2523;-27
2023/08/27 06:11:29;;;;;;;;;;;;;;;;;;2219097;58;3049;-27
2023/08/27 06:13:59;;;;;;;;;;;;;;;;;;2219246;58;1991;-27
2023/08/27 06:16:29;;;;;;;;;;;;;;;;;;2219377;58;1569;-27
2023/08/27 06:19:00;;;;;;;;;;;;;;;;;;2218839;58;1881;-27
2023/08/27 06:21:30;;;;;;;;;;;;;;;;;;2218969;66;1749;-27
2023/08/27 06:24:00;;;;;;;;;;;;;;;;;;2215036;66;2751;-27
2023/08/27 06:26:31;;;;;;;;;;;;;;;;;;2215244;59;2764;-27
2023/08/27 06:29:01;;;;;;;;;;;;;;;;;;2218916;58;1990;-27
2023/08/27 06:31:31;;;;;;;;;;;;;;;;;;2218819;58;2575;-27
2023/08/27 06:34:02;;;;;;;;;;;;;;;;;;2218449;58;2000;-27
2023/08/27 06:36:32;;;;;;;;;;;;;;;;;;2219188;66;2259;-27
2023/08/27 06:39:02;;;;;;;;;;;;;;;;;;2218410;58;2538;-27
2023/08/27 06:41:32;;;;;;;;;;;;;;;;;;2215431;66;2715;-27
2023/08/27 06:44:03;;;;;;;;;;;;;;;;;;2218349;66;2502;-27
2023/08/27 06:46:34;;;;;;;;;;;;;;;;;;2218350;58;1794;-27
2023/08/27 06:49:04;;;;;;;;;;;;;;;;;;2218148;66;1946;-27
2023/08/27 06:51:34;;;;;;;;;;;;;;;;;;2218947;58;1841;-27
2023/08/27 06:54:04;;;;;;;;;;;;;;;;;;2218607;58;2105;-27
2023/08/27 06:56:34;;;;;;;;;;;;;;;;;;2218673;58;2802;-27
2023/08/27 06:59:10;;;;;;;;;;;;;;;;;;2218802;66;2206;-27
2023/08/27 07:01:40;;;;;;;;;;;;;;;;;;2215427;58;2312;-27
2023/08/27 07:04:10;;;;;;;;;;;;;;;;;;2218482;66;2217;-27
2023/08/27 07:06:40;;;;;;;;;;;;;;;;;;2217866;59;2331;-27
2023/08/27 07:09:11;;;;;;;;;;;;;;;;;;2217044;66;2674;-27
2023/08/27 07:11:41;;;;;;;;;;;;;;;;;;2218499;58;1983;-27
2023/08/27 07:14:11;;;;;;;;;;;;;;;;;;2218288;66;1979;-27
2023/08/27 07:16:41;;;;;;;;;;;;;;;;;;2218891;66;1779;-27
2023/08/27 07:19:14;;;;;;;;;;;;;;;;;;2218097;59;2021;-27
2023/08/27 07:21:45;;;;;;;;;;;;;;;;;;2215306;66;1900;-27
2023/08/27 07:24:15;;;;;;;;;;;;;;;;;;2218331;66;2559;-27
2023/08/27 07:26:45;;;;;;;;;;;;;;;;;;2219125;59;1748;-26
2023/08/27 07:29:15;;;;;;;;;;;;;;;;;;2218208;58;2529;-27
2023/08/27 07:31:46;;;;;;;;;;;;;;;;;;2215591;58;2400;-27
2023/08/27 07:34:16;;;;;;;;;;;;;;;;;;2218878;58;2872;-27
2023/08/27 07:36:46;;;;;;;;;;;;;;;;;;2218329;58;1484;-27
2023/08/27 07:39:16;;;;;;;;;;;;;;;;;;2218562;58;1935;-27
2023/08/27 07:41:46;;;;;;;;;;;;;;;;;;2218721;59;1672;-27
2023/08/27 07:44:17;;;;;;;;;;;;;;;;;;2217798;59;2703;-26
2023/08/27 07:46:47;;;;;;;;;;;;;;;;;;2214486;58;2251;-27
2023/08/27 07:49:17;;;;;;;;;;;;;;;;;;2217732;58;2854;-27
2023/08/27 07:51:47;;;;;;;;;;;;;;;;;;2218651;66;2170;-27
2023/08/27 07:54:17;;;;;;;;;;;;;;;;;;2217955;58;2010;-27
2023/08/27 07:56:48;;;;;;;;;;;;;;;;;;2218846;58;1903;-26
2023/08/27 07:59:18;;;;;;;;;;;;;;;;;;2217768;59;1908;-26
2023/08/27 08:01:48;;;;;;;;;;;;;;;;;;2218003;58;1489;-27
2023/08/27 08:04:18;;;;;;;;;;;;;;;;;;2218072;59;1385;-27
2023/08/27 08:06:49;;;;;;;;;;;;;;;;;;2218215;66;2319;-26
2023/08/27 08:09:19;;;;;;;;;;;;;;;;;;2216723;59;2273;-27
2023/08/27 08:11:49;;;;;;;;;;;;;;;;;;2218497;58;2741;-26
2023/08/27 08:14:19;;;;;;;;;;;;;;;;;;2218857;66;2033;-27
2023/08/27 08:16:52;;;;;;;;;;;;;;;;;;2219107;66;1903;-27
2023/08/27 08:19:23;;;;;;;;;;;;;;;;;;2218478;66;1922;-26
2023/08/27 08:21:53;;;;;;;;;;;;;;;;;;2219176;66;2344;-27
2023/08/27 08:24:24;;;;;;;;;;;;;;;;;;2216329;66;1686;-26
2023/08/27 08:26:54;;;;;;;;;;;;;;;;;;2215306;66;1669;-26
2023/08/27 08:29:24;;;;;;;;;;;;;;;;;;2213250;66;1941;-27
2023/08/27 08:31:55;;;;;;;;;;;;;;;;;;2218607;58;1510;-27
2023/08/27 08:34:28;;;;;;;;;;;;;;;;;;2218695;58;1349;-26
2023/08/27 08:37:00;;;;;;;;;;;;;;;;;;2214578;58;1658;-27
2023/08/27 08:39:30;;;;;;;;;;;;;;;;;;2218965;66;1255;-27
2023/08/27 08:42:20;;;;;;;;;;;;;;;;;;2213146;66;1422;-26
2023/08/27 08:45:10;;;;;;;;;;;;;;;;;;2218683;58;1723;-27
2023/08/27 08:47:40;;;;;;;;;;;;;;;;;;2218679;58;1752;-27
2023/08/27 08:50:12;;;;;;;;;;;;;;;;;;2217966;59;1942;-28
2023/08/27 08:52:43;;;;;;;;;;;;;;;;;;2215728;59;1791;-27
2023/08/27 08:55:14;;;;;;;;;;;;;;;;;;2215428;66;1611;-28
2023/08/27 08:57:51;;;;;;;;;;;;;;;;;;2219854;59;1361;-27
2023/08/27 09:00:21;;;;;;;;;;;;;;;;;;2220142;58;1322;-27
2023/08/27 09:02:52;;;;;;;;;;;;;;;;;;2220135;66;1192;-27
2023/08/27 09:05:23;;;;;;;;;;;;;;;;;;2218647;66;1752;-28
2023/08/27 09:07:53;;;;;;;;;;;;;;;;;;2217938;66;2649;-27
2023/08/27 09:10:24;;;;;;;;;;;;;;;;;;2217185;59;2519;-27
2023/08/27 09:12:57;;;;;;;;;;;;;;;;;;2218137;58;1744;-29
2023/08/27 09:15:28;;;;;;;;;;;;;;;;;;2218529;66;1750;-29
2023/08/27 09:17:58;;;;;;;;;;;;;;;;;;2218057;66;1767;-27
2023/08/27 09:20:28;;;;;;;;;;;;;;;;;;2217990;58;1768;-28
2023/08/27 09:22:58;;;;;;;;;;;;;;;;;;2217904;59;1697;-28
2023/08/27 09:25:30;;;;;;;;;;;;;;;;;;2218941;66;2069;-26
2023/08/27 09:28:00;;;;;;;;;;;;;;;;;;2218100;58;1858;-26
2023/08/27 09:30:30;;;;;;;;;;;;;;;;;;2218016;58;1999;-26
2023/08/27 09:33:02;;;;;;;;;;;;;;;;;;2211360;59;1874;-26
2023/08/27 09:35:40;;;;;;;;;;;;;;;;;;2217976;59;1690;-26
2023/08/27 09:38:11;;;;;;;;;;;;;;;;;;2217476;59;1781;-27
2023/08/27 09:40:41;;;;;;;;;;;;;;;;;;2218466;59;1734;-26
2023/08/27 09:43:12;;;;;;;;;;;;;;;;;;2217937;66;2044;-26
2023/08/27 09:45:42;;;;;;;;;;;;;;;;;;2218726;58;1778;-26
2023/08/27 09:48:21;;;;;;;;;;;;;;;;;;2218328;58;1856;-26
2023/08/27 09:51:01;;;;;;;;;;;;;;;;;;2218994;58;1798;-25
2023/08/27 09:53:32;;;;;;;;;;;;;;;;;;2212580;66;2421;-25
2023/08/27 09:56:03;;;;;;;;;;;;;;;;;;2218718;58;2778;-25
2023/08/27 09:58:36;;;;;;;;;;;;;;;;;;2215092;66;2541;-25
2023/08/27 10:01:07;;;;;;;;;;;;;;;;;;2215335;59;2682;-28
2023/08/27 10:03:37;;;;;;;;;;;;;;;;;;2218716;66;1800;-27
2023/08/27 10:06:08;;;;;;;;;;;;;;;;;;2218144;66;2004;-27
2023/08/27 10:08:54;;;;;;;;;;;;;;;;;;2218470;66;2253;-25
2023/08/27 10:11:24;;;;;;;;;;;;;;;;;;2217058;58;2200;-27
2023/08/27 10:13:57;;;;;;;;;;;;;;;;;;2217981;66;1902;-28
2023/08/27 10:16:28;;;;;;;;;;;;;;;;;;2214805;66;1805;-28
2023/08/27 10:19:01;;;;;;;;;;;;;;;;;;2217938;66;1760;-28
2023/08/27 10:21:31;;;;;;;;;;;;;;;;;;2218102;66;1772;-28
2023/08/27 10:24:02;;;;;;;;;;;;;;;;;;2217547;59;1839;-28
2023/08/27 10:26:33;;;;;;;;;;;;;;;;;;2218539;58;1843;-28
2023/08/27 10:29:03;;;;;;;;;;;;;;;;;;2217863;59;2000;-28
2023/08/27 10:31:34;;;;;;;;;;;;;;;;;;2219335;58;2297;-28
2023/08/27 10:34:05;;;;;;;;;;;;;;;;;;2215638;59;1835;-27
2023/08/27 10:36:38;;;;;;;;;;;;;;;;;;2219205;66;1963;-25
2023/08/27 10:39:10;;;;;;;;;;;;;;;;;;2218274;58;1900;-25
2023/08/27 10:41:40;;;;;;;;;;;;;;;;;;2218325;66;1943;-24
2023/08/27 10:44:10;;;;;;;;;;;;;;;;;;2217917;66;3098;-24
2023/08/27 10:46:40;;;;;;;;;;;;;;;;;;2219298;58;1887;-24
2023/08/27 10:49:15;;;;;;;;;;;;;;;;;;2214917;66;1983;-25
2023/08/27 10:51:45;;;;;;;;;;;;;;;;;;2216467;59;3692;-25
2023/08/27 10:54:23;;;;;;;;;;;;;;;;;;2218843;58;2462;-25
2023/08/27 10:56:55;;;;;;;;;;;;;;;;;;2215377;59;1962;-25
2023/08/27 10:59:27;;;;;;;;;;;;;;;;;;2215890;66;1767;-25
2023/08/27 11:02:07;;;;;;;;;;;;;;;;;;2219254;58;1963;-25
2023/08/27 11:04:39;;;;;;;;;;;;;;;;;;2219183;66;2563;-25
2023/08/27 11:07:10;;;;;;;;;;;;;;;;;;2218084;66;3026;-25
2023/08/27 11:09:46;;;;;;;;;;;;;;;;;;2219483;66;2747;-25
2023/08/27 11:12:26;;;;;;;;;;;;;;;;;;2217537;58;2597;-25
2023/08/27 11:15:09;;;;;;;;;;;;;;;;;;2214655;66;1772;-25
2023/08/27 11:17:40;;;;;;;;;;;;;;;;;;2219418;66;1763;-25
2023/08/27 11:20:23;;;;;;;;;;;;;;;;;;2217752;66;1742;-24
2023/08/27 11:22:57;;;;;;;;;;;;;;;;;;2219410;66;1751;-25
2023/08/27 11:25:28;;;;;;;;;;;;;;;;;;2218922;66;1606;-24
2023/08/27 11:27:59;;;;;;;;;;;;;;;;;;2218385;58;1318;-25
2023/08/27 11:30:29;;;;;;;;;;;;;;;;;;2218570;58;1899;-24
2023/08/27 11:33:00;;;;;;;;;;;;;;;;;;2218740;58;2063;-24
2023/08/27 11:35:30;;;;;;;;;;;;;;;;;;2218858;66;1609;-24
2023/08/27 11:38:00;;;;;;;;;;;;;;;;;;2217927;58;1417;-24
2023/08/27 11:40:30;;;;;;;;;;;;;;;;;;2218826;66;1611;-24
2023/08/27 11:43:00;;;;;;;;;;;;;;;;;;2218334;58;1598;-25
2023/08/27 11:45:31;;;;;;;;;;;;;;;;;;2218253;58;1671;-24
2023/08/27 11:48:02;;;;;;;;;;;;;;;;;;2218652;58;2241;-28
2023/08/27 11:50:33;;;;;;;;;;;;;;;;;;2217948;58;1992;-28
2023/08/27 11:53:04;;;;;;;;;;;;;;;;;;2218154;58;2048;-28
2023/08/27 11:55:38;;;;;;;;;;;;;;;;;;2216197;58;1680;-28
2023/08/27 11:58:09;;;;;;;;;;;;;;;;;;2218506;66;1755;-28
2023/08/27 12:00:42;;;;;;;;;;;;;;;;;;2219169;58;1700;-28
2023/08/27 12:03:13;;;;;;;;;;;;;;;;;;2218745;66;1811;-28
2023/08/27 12:05:43;;;;;;;;;;;;;;;;;;2216126;66;1656;-28
2023/08/27 12:08:13;;;;;;;;;;;;;;;;;;2218050;66;1734;-28
2023/08/27 12:10:44;;;;;;;;;;;;;;;;;;2218170;66;1937;-28
2023/08/27 12:13:14;;;;;;;;;;;;;;;;;;2216839;59;2444;-28
2023/08/27 12:15:46;;;;;;;;;;;;;;;;;;2218845;65;1999;-28
2023/08/27 12:18:16;;;;;;;;;;;;;;;;;;2218053;66;2024;-28
2023/08/27 12:20:50;;;;;;;;;;;;;;;;;;2218718;59;1615;-28
2023/08/27 12:23:20;;;;;;;;;;;;;;;;;;2218444;66;1735;-28
2023/08/27 12:25:52;;;;;;;;;;;;;;;;;;2218539;66;2015;-28
2023/08/27 12:28:24;;;;;;;;;;;;;;;;;;2217766;58;2229;-28
2023/08/27 12:30:55;;;;;;;;;;;;;;;;;;2218055;66;2165;-31
2023/08/27 12:33:36;;;;;;;;;;;;;;;;;;2217420;58;1631;-26
2023/08/27 12:36:07;;;;;;;;;;;;;;;;;;2214764;66;2329;-27
2023/08/27 12:38:37;;;;;;;;;;;;;;;;;;2218261;58;1979;-26
2023/08/27 12:41:07;;;;;;;;;;;;;;;;;;2214928;66;1776;-26
2023/08/27 12:43:38;;;;;;;;;;;;;;;;;;2218623;66;2165;-25
2023/08/27 12:46:08;;;;;;;;;;;;;;;;;;2215335;58;1713;-26
2023/08/27 12:48:39;;;;;;;;;;;;;;;;;;2220011;66;1936;-26
2023/08/27 12:51:09;;;;;;;;;;;;;;;;;;2219184;58;1470;-27
2023/08/27 12:53:39;;;;;;;;;;;;;;;;;;2219680;58;1323;-26
2023/08/27 12:56:10;;;;;;;;;;;;;;;;;;2218376;58;1871;-26
2023/08/27 12:58:40;;;;;;;;;;;;;;;;;;2216426;66;1632;-26
2023/08/27 13:01:12;;;;;;;;;;;;;;;;;;2215941;58;1175;-26
2023/08/27 13:03:42;;;;;;;;;;;;;;;;;;2220486;66;1723;-26
2023/08/27 13:06:13;;;;;;;;;;;;;;;;;;2220321;66;1374;-27
2023/08/27 13:08:43;;;;;;;;;;;;;;;;;;2220063;66;1941;-26
2023/08/27 13:11:16;;;;;;;;;;;;;;;;;;2219874;66;1235;-26
2023/08/27 13:13:46;;;;;;;;;;;;;;;;;;2218958;66;2542;-25
2023/08/27 13:16:17;;;;;;;;;;;;;;;;;;2219468;66;3533;-24
2023/08/27 13:18:48;;;;;;;;;;;;;;;;;;2219768;66;1895;-24
2023/08/27 13:21:19;;;;;;;;;;;;;;;;;;2215977;59;1780;-24
2023/08/27 13:23:49;;;;;;;;;;;;;;;;;;2219269;59;1945;-24
2023/08/27 13:26:19;;;;;;;;;;;;;;;;;;2216025;66;1805;-24
2023/08/27 13:28:49;;;;;;;;;;;;;;;;;;2220032;58;1946;-24
2023/08/27 13:31:19;;;;;;;;;;;;;;;;;;2219728;58;1636;-24
2023/08/27 13:33:52;;;;;;;;;;;;;;;;;;2220641;58;2424;-24
2023/08/27 13:36:23;;;;;;;;;;;;;;;;;;2219074;66;1851;-24
2023/08/27 13:38:53;;;;;;;;;;;;;;;;;;2219564;58;2649;-24
2023/08/27 13:41:23;;;;;;;;;;;;;;;;;;2220357;66;2326;-24
2023/08/27 13:43:53;;;;;;;;;;;;;;;;;;2219929;66;2766;-24
2023/08/27 13:46:23;;;;;;;;;;;;;;;;;;2219604;58;2679;-24
2023/08/27 13:48:54;;;;;;;;;;;;;;;;;;2215117;66;1942;-24
2023/08/27 13:51:24;;;;;;;;;;;;;;;;;;2217191;58;1817;-25
2023/08/27 13:53:54;;;;;;;;;;;;;;;;;;2218558;58;1836;-24
2023/08/27 13:56:24;;;;;;;;;;;;;;;;;;2216081;59;1862;-24
2023/08/27 13:58:54;;;;;;;;;;;;;;;;;;2217608;66;1692;-25
2023/08/27 14:01:25;;;;;;;;;;;;;;;;;;2221604;58;1738;-25
2023/08/27 14:03:55;;;;;;;;;;;;;;;;;;2219213;66;1799;-25
2023/08/27 14:06:25;;;;;;;;;;;;;;;;;;2218924;66;1491;-25
2023/08/27 14:08:56;;;;;;;;;;;;;;;;;;2218116;66;2001;-25
2023/08/27 14:11:26;;;;;;;;;;;;;;;;;;2218076;58;1695;-25
2023/08/27 14:13:56;;;;;;;;;;;;;;;;;;2218518;59;2717;-25
2023/08/27 14:16:26;;;;;;;;;;;;;;;;;;2214629;66;2439;-25
2023/08/27 14:18:57;;;;;;;;;;;;;;;;;;2218342;66;1703;-25
2023/08/27 14:21:27;;;;;;;;;;;;;;;;;;2214929;59;1827;-25
2023/08/27 14:24:00;;;;;;;;;;;;;;;;;;2218835;66;1771;-25
2023/08/27 14:26:30;;;;;;;;;;;;;;;;;;2218478;58;2206;-25
2023/08/27 14:29:00;;;;;;;;;;;;;;;;;;2218878;58;2003;-24
2023/08/27 14:31:30;;;;;;;;;;;;;;;;;;2219008;58;1787;-25
2023/08/27 14:34:04;;;;;;;;;;;;;;;;;;2220937;58;1700;-24
2023/08/27 14:36:35;;;;;;;;;;;;;;;;;;2220313;66;2594;-25
2023/08/27 14:39:05;;;;;;;;;;;;;;;;;;2218695;58;2818;-24
2023/08/27 14:41:35;;;;;;;;;;;;;;;;;;2218815;59;2244;-24
2023/08/27 14:44:06;;;;;;;;;;;;;;;;;;2219384;66;2800;-25
2023/08/27 14:46:36;;;;;;;;;;;;;;;;;;2218750;58;1848;-24
2023/08/27 14:49:07;;;;;;;;;;;;;;;;;;2216243;58;2024;-25
2023/08/27 14:51:37;;;;;;;;;;;;;;;;;;2218861;58;1938;-24
2023/08/27 14:54:08;;;;;;;;;;;;;;;;;;2218664;66;1863;-24
2023/08/27 14:56:38;;;;;;;;;;;;;;;;;;2216032;59;1978;-24
2023/08/27 14:59:41;;;;;;;;;;;;;;;;;;2218911;66;2647;-25
2023/08/27 15:02:13;;;;;;;;;;;;;;;;;;2212988;66;1898;-25
2023/08/27 15:04:43;;;;;;;;;;;;;;;;;;2219125;66;2290;-25
2023/08/27 15:07:13;;;;;;;;;;;;;;;;;;2218584;66;1993;-25
2023/08/27 15:09:45;;;;;;;;;;;;;;;;;;2218651;66;1932;-25
2023/08/27 15:12:16;;;;;;;;;;;;;;;;;;2217619;66;1798;-26
2023/08/27 15:14:47;;;;;;;;;;;;;;;;;;2218861;59;2787;-25
2023/08/27 15:17:17;;;;;;;;;;;;;;;;;;2217163;66;2750;-27
2023/08/27 15:19:47;;;;;;;;;;;;;;;;;;2218860;66;1291;-27
2023/08/27 15:22:18;;;;;;;;;;;;;;;;;;2218437;66;1594;-27
2023/08/27 15:24:48;;;;;;;;;;;;;;;;;;2218916;66;2039;-27
2023/08/27 15:27:18;;;;;;;;;;;;;;;;;;2218125;66;1299;-27
2023/08/27 15:29:48;;;;;;;;;;;;;;;;;;2218167;58;1964;-27
2023/08/27 15:32:21;;;;;;;;;;;;;;;;;;2218901;58;1624;-27
2023/08/27 15:34:52;;;;;;;;;;;;;;;;;;2219479;66;1113;-27
2023/08/27 15:37:22;;;;;;;;;;;;;;;;;;2214859;59;2242;-25
2023/08/27 15:39:53;;;;;;;;;;;;;;;;;;2216065;66;1977;-25
2023/08/27 15:42:27;;;;;;;;;;;;;;;;;;2218739;66;1718;-27
2023/08/27 15:44:58;;;;;;;;;;;;;;;;;;2214919;58;1440;-25
2023/08/27 15:47:30;;;;;;;;;;;;;;;;;;2212880;59;1829;-25
2023/08/27 15:50:00;;;;;;;;;;;;;;;;;;2218745;66;1931;-25
2023/08/27 15:52:31;;;;;;;;;;;;;;;;;;2219216;58;2186;-26
2023/08/27 15:55:01;;;;;;;;;;;;;;;;;;2218376;66;1775;-25
2023/08/27 15:57:31;;;;;;;;;;;;;;;;;;2215572;59;1741;-25
2023/08/27 16:00:06;;;;;;;;;;;;;;;;;;2219636;58;1717;-25
2023/08/27 16:02:36;;;;;;;;;;;;;;;;;;2216159;66;1706;-25
2023/08/27 16:05:06;;;;;;;;;;;;;;;;;;2219250;66;1677;-25
2023/08/27 16:07:37;;;;;;;;;;;;;;;;;;2219093;66;1287;-25
2023/08/27 16:10:07;;;;;;;;;;;;;;;;;;2215814;66;1945;-25
2023/08/27 16:12:37;;;;;;;;;;;;;;;;;;2217954;58;1410;-25
2023/08/27 16:15:08;;;;;;;;;;;;;;;;;;2218779;66;1430;-25
2023/08/27 16:17:38;;;;;;;;;;;;;;;;;;2213378;64;2184;-26
2023/08/27 16:20:09;;;;;;;;;;;;;;;;;;2217496;66;1838;-26
2023/08/27 16:22:39;;;;;;;;;;;;;;;;;;2218342;66;2278;-26
2023/08/27 16:25:11;;;;;;;;;;;;;;;;;;2218533;66;2252;-26
2023/08/27 16:27:41;;;;;;;;;;;;;;;;;;2218588;58;1766;-25
2023/08/27 16:30:12;;;;;;;;;;;;;;;;;;2218007;66;2026;-26
2023/08/27 16:32:42;;;;;;;;;;;;;;;;;;2215001;59;1979;-26
2023/08/27 16:35:12;;;;;;;;;;;;;;;;;;2218240;66;2553;-26
2023/08/27 16:37:44;;;;;;;;;;;;;;;;;;2219078;58;1734;-26
2023/08/27 16:40:19;;;;;;;;;;;;;;;;;;2218207;66;1872;-26
2023/08/27 16:42:49;;;;;;;;;;;;;;;;;;2212616;66;2734;-26
2023/08/27 16:45:20;;;;;;;;;;;;;;;;;;2218859;58;1812;-27
2023/08/27 16:47:52;;;;;;;;;;;;;;;;;;2218939;58;1774;-26
2023/08/27 16:50:22;;;;;;;;;;;;;;;;;;2218097;66;1998;-26
2023/08/27 16:52:52;;;;;;;;;;;;;;;;;;2220440;58;1851;-27
2023/08/27 16:55:23;;;;;;;;;;;;;;;;;;2215549;58;2575;-27
2023/08/27 16:57:53;;;;;;;;;;;;;;;;;;2219166;66;1997;-26
2023/08/27 17:00:23;;;;;;;;;;;;;;;;;;2219902;58;2625;-27
2023/08/27 17:02:54;;;;;;;;;;;;;;;;;;2221132;58;1787;-27
2023/08/27 17:05:24;;;;;;;;;;;;;;;;;;2213560;66;2644;-26
2023/08/27 17:07:54;;;;;;;;;;;;;;;;;;2218318;66;1911;-26
2023/08/27 17:10:24;;;;;;;;;;;;;;;;;;2212431;66;2078;-26
2023/08/27 17:12:55;;;;;;;;;;;;;;;;;;2218783;58;2039;-27
2023/08/27 17:15:25;;;;;;;;;;;;;;;;;;2215523;66;1844;-27
2023/08/27 17:17:56;;;;;;;;;;;;;;;;;;2217060;59;2562;-27
2023/08/27 17:20:26;;;;;;;;;;;;;;;;;;2217567;59;1883;-27
2023/08/27 17:22:57;;;;;;;;;;;;;;;;;;2218134;66;2797;-27
2023/08/27 17:25:27;;;;;;;;;;;;;;;;;;2218167;66;2234;-27
2023/08/27 17:27:57;;;;;;;;;;;;;;;;;;2215037;58;1849;-27
2023/08/27 17:30:27;;;;;;;;;;;;;;;;;;2217957;58;1951;-27